sensor_id;sensor_type;location;lat;lon;timestamp;P1;durP1;ratioP1;P2;durP2;ratioP2
44476;SDS011;30180;44.788;10.366;2022-11-15T00:01:14;12.43;;;9.07;;
44476;SDS011;30180;44.788;10.366;2022-11-15T00:03:44;12.75;;;9.32;;
44476;SDS011;30180;44.788;10.366;2022-11-15T00:06:13;12.77;;;8.85;;
44476;SDS011;30180;44.788;10.366;2022-11-15T00:08:41;12.25;;;8.98;;
44476;SDS011;30180;44.788;10.366;2022-11-15T00:11:10;13.70;;;9.30;;
44476;SDS011;30180;44.788;10.366;2022-11-15T00:13:39;12.55;;;8.93;;
44476;SDS011;30180;44.788;10.366;2022-11-15T00:16:09;13.77;;;9.25;;
44476;SDS011;30180;44.788;10.366;2022-11-15T00:18:38;13.50;;;9.27;;
44476;SDS011;30180;44.788;10.366;2022-11-15T00:21:10;12.13;;;9.02;;
44476;SDS011;30180;44.788;10.366;2022-11-15T00:23:39;12.68;;;8.82;;
44476;SDS011;30180;44.788;10.366;2022-11-15T00:26:09;13.05;;;8.63;;
44476;SDS011;30180;44.788;10.366;2022-11-15T00:28:39;12.48;;;9.10;;
44476;SDS011;30180;44.788;10.366;2022-11-15T00:31:11;11.75;;;8.73;;
44476;SDS011;30180;44.788;10.366;2022-11-15T00:33:42;14.32;;;9.00;;
44476;SDS011;30180;44.788;10.366;2022-11-15T00:36:11;11.82;;;9.15;;
44476;SDS011;30180;44.788;10.366;2022-11-15T00:38:39;13.30;;;9.40;;
44476;SDS011;30180;44.788;10.366;2022-11-15T00:41:08;12.30;;;8.77;;
44476;SDS011;30180;44.788;10.366;2022-11-15T00:43:36;11.05;;;8.70;;
44476;SDS011;30180;44.788;10.366;2022-11-15T00:46:06;12.70;;;8.63;;
44476;SDS011;30180;44.788;10.366;2022-11-15T00:48:37;12.43;;;8.48;;
44476;SDS011;30180;44.788;10.366;2022-11-15T00:51:05;12.07;;;8.65;;
44476;SDS011;30180;44.788;10.366;2022-11-15T00:53:33;14.88;;;8.93;;
44476;SDS011;30180;44.788;10.366;2022-11-15T00:56:02;11.63;;;8.60;;
44476;SDS011;30180;44.788;10.366;2022-11-15T00:58:30;11.88;;;8.38;;
44476;SDS011;30180;44.788;10.366;2022-11-15T01:01:05;12.60;;;8.90;;
44476;SDS011;30180;44.788;10.366;2022-11-15T01:03:34;13.35;;;8.60;;
44476;SDS011;30180;44.788;10.366;2022-11-15T01:06:05;12.13;;;8.38;;
44476;SDS011;30180;44.788;10.366;2022-11-15T01:08:34;11.82;;;8.23;;
44476;SDS011;30180;44.788;10.366;2022-11-15T01:11:03;11.75;;;8.38;;
44476;SDS011;30180;44.788;10.366;2022-11-15T01:13:34;12.43;;;8.97;;
44476;SDS011;30180;44.788;10.366;2022-11-15T01:16:06;12.07;;;8.05;;
44476;SDS011;30180;44.788;10.366;2022-11-15T01:18:36;11.73;;;8.80;;
44476;SDS011;30180;44.788;10.366;2022-11-15T01:21:06;10.88;;;7.93;;
44476;SDS011;30180;44.788;10.366;2022-11-15T01:26:04;12.50;;;8.70;;
44476;SDS011;30180;44.788;10.366;2022-11-15T01:28:34;13.88;;;8.77;;
44476;SDS011;30180;44.788;10.366;2022-11-15T01:31:04;10.85;;;7.60;;
44476;SDS011;30180;44.788;10.366;2022-11-15T01:33:34;12.32;;;8.27;;
44476;SDS011;30180;44.788;10.366;2022-11-15T01:36:03;12.40;;;8.23;;
44476;SDS011;30180;44.788;10.366;2022-11-15T01:38:34;11.82;;;8.23;;
44476;SDS011;30180;44.788;10.366;2022-11-15T01:41:02;11.25;;;8.25;;
44476;SDS011;30180;44.788;10.366;2022-11-15T01:43:32;11.50;;;8.40;;
44476;SDS011;30180;44.788;10.366;2022-11-15T01:46:02;11.80;;;8.00;;
44476;SDS011;30180;44.788;10.366;2022-11-15T01:48:34;11.20;;;7.90;;
44476;SDS011;30180;44.788;10.366;2022-11-15T01:51:04;12.10;;;8.02;;
44476;SDS011;30180;44.788;10.366;2022-11-15T01:53:38;11.32;;;8.38;;
44476;SDS011;30180;44.788;10.366;2022-11-15T01:56:09;12.13;;;8.27;;
44476;SDS011;30180;44.788;10.366;2022-11-15T01:58:41;11.32;;;8.30;;
44476;SDS011;30180;44.788;10.366;2022-11-15T02:01:11;11.43;;;7.85;;
44476;SDS011;30180;44.788;10.366;2022-11-15T02:03:41;13.07;;;8.32;;
44476;SDS011;30180;44.788;10.366;2022-11-15T02:06:16;11.20;;;7.88;;
44476;SDS011;30180;44.788;10.366;2022-11-15T02:08:44;10.52;;;7.93;;
44476;SDS011;30180;44.788;10.366;2022-11-15T02:11:12;10.93;;;8.00;;
44476;SDS011;30180;44.788;10.366;2022-11-15T02:13:41;11.05;;;7.80;;
44476;SDS011;30180;44.788;10.366;2022-11-15T02:16:12;10.32;;;7.90;;
44476;SDS011;30180;44.788;10.366;2022-11-15T02:18:51;11.15;;;8.13;;
44476;SDS011;30180;44.788;10.366;2022-11-15T02:21:30;11.02;;;7.60;;
44476;SDS011;30180;44.788;10.366;2022-11-15T02:30:37;11.65;;;8.30;;
44476;SDS011;30180;44.788;10.366;2022-11-15T02:33:12;10.10;;;6.78;;
44476;SDS011;30180;44.788;10.366;2022-11-15T02:35:50;11.10;;;7.70;;
44476;SDS011;30180;44.788;10.366;2022-11-15T02:38:28;11.00;;;7.90;;
44476;SDS011;30180;44.788;10.366;2022-11-15T02:41:02;11.00;;;7.53;;
44476;SDS011;30180;44.788;10.366;2022-11-15T02:43:36;10.68;;;7.93;;
44476;SDS011;30180;44.788;10.366;2022-11-15T02:46:28;11.20;;;7.95;;
44476;SDS011;30180;44.788;10.366;2022-11-15T02:49:19;10.75;;;8.07;;
44476;SDS011;30180;44.788;10.366;2022-11-15T02:51:49;10.98;;;7.88;;
44476;SDS011;30180;44.788;10.366;2022-11-15T02:54:20;13.23;;;8.67;;
44476;SDS011;30180;44.788;10.366;2022-11-15T02:56:51;12.38;;;7.72;;
44476;SDS011;30180;44.788;10.366;2022-11-15T02:59:38;11.25;;;7.78;;
44476;SDS011;30180;44.788;10.366;2022-11-15T03:02:24;10.60;;;7.47;;
44476;SDS011;30180;44.788;10.366;2022-11-15T03:05:13;10.45;;;7.47;;
44476;SDS011;30180;44.788;10.366;2022-11-15T03:07:50;9.68;;;7.35;;
44476;SDS011;30180;44.788;10.366;2022-11-15T03:10:30;11.45;;;7.63;;
44476;SDS011;30180;44.788;10.366;2022-11-15T03:13:08;10.95;;;7.70;;
44476;SDS011;30180;44.788;10.366;2022-11-15T03:15:50;11.57;;;7.97;;
44476;SDS011;30180;44.788;10.366;2022-11-15T03:18:27;10.38;;;6.90;;
44476;SDS011;30180;44.788;10.366;2022-11-15T03:21:00;11.98;;;8.00;;
44476;SDS011;30180;44.788;10.366;2022-11-15T03:23:31;11.52;;;7.93;;
44476;SDS011;30180;44.788;10.366;2022-11-15T03:26:03;10.32;;;7.55;;
44476;SDS011;30180;44.788;10.366;2022-11-15T03:28:36;11.48;;;7.78;;
44476;SDS011;30180;44.788;10.366;2022-11-15T03:31:08;10.20;;;7.20;;
44476;SDS011;30180;44.788;10.366;2022-11-15T03:33:53;9.90;;;7.32;;
44476;SDS011;30180;44.788;10.366;2022-11-15T03:36:24;10.07;;;7.32;;
44476;SDS011;30180;44.788;10.366;2022-11-15T03:38:54;11.13;;;7.28;;
44476;SDS011;30180;44.788;10.366;2022-11-15T03:41:28;11.30;;;7.97;;
44476;SDS011;30180;44.788;10.366;2022-11-15T03:44:04;10.90;;;7.22;;
44476;SDS011;30180;44.788;10.366;2022-11-15T03:46:40;11.02;;;7.35;;
44476;SDS011;30180;44.788;10.366;2022-11-15T03:49:17;9.73;;;7.03;;
44476;SDS011;30180;44.788;10.366;2022-11-15T03:51:49;11.00;;;7.68;;
44476;SDS011;30180;44.788;10.366;2022-11-15T03:54:18;9.73;;;7.45;;
44476;SDS011;30180;44.788;10.366;2022-11-15T03:56:46;11.38;;;7.47;;
44476;SDS011;30180;44.788;10.366;2022-11-15T03:59:14;10.07;;;7.38;;
44476;SDS011;30180;44.788;10.366;2022-11-15T04:01:43;10.68;;;7.10;;
44476;SDS011;30180;44.788;10.366;2022-11-15T04:04:11;10.70;;;7.18;;
44476;SDS011;30180;44.788;10.366;2022-11-15T04:06:41;10.95;;;7.47;;
44476;SDS011;30180;44.788;10.366;2022-11-15T04:09:09;11.50;;;6.97;;
44476;SDS011;30180;44.788;10.366;2022-11-15T04:11:38;10.60;;;7.47;;
44476;SDS011;30180;44.788;10.366;2022-11-15T04:14:06;9.73;;;7.22;;
44476;SDS011;30180;44.788;10.366;2022-11-15T04:16:34;10.75;;;7.15;;
44476;SDS011;30180;44.788;10.366;2022-11-15T04:19:09;9.68;;;6.75;;
44476;SDS011;30180;44.788;10.366;2022-11-15T04:21:56;9.18;;;6.75;;
44476;SDS011;30180;44.788;10.366;2022-11-15T04:24:41;9.60;;;6.72;;
44476;SDS011;30180;44.788;10.366;2022-11-15T04:27:09;10.70;;;7.55;;
44476;SDS011;30180;44.788;10.366;2022-11-15T04:29:39;10.45;;;7.15;;
44476;SDS011;30180;44.788;10.366;2022-11-15T04:32:07;9.88;;;6.45;;
44476;SDS011;30180;44.788;10.366;2022-11-15T04:34:35;8.93;;;6.38;;
44476;SDS011;30180;44.788;10.366;2022-11-15T04:37:05;8.65;;;6.68;;
44476;SDS011;30180;44.788;10.366;2022-11-15T04:39:39;8.93;;;6.43;;
44476;SDS011;30180;44.788;10.366;2022-11-15T04:42:08;10.75;;;6.70;;
44476;SDS011;30180;44.788;10.366;2022-11-15T04:44:37;9.52;;;6.82;;
44476;SDS011;30180;44.788;10.366;2022-11-15T04:47:05;8.77;;;6.47;;
44476;SDS011;30180;44.788;10.366;2022-11-15T04:49:34;10.27;;;7.05;;
44476;SDS011;30180;44.788;10.366;2022-11-15T04:52:02;9.57;;;6.80;;
44476;SDS011;30180;44.788;10.366;2022-11-15T04:54:32;9.68;;;6.97;;
44476;SDS011;30180;44.788;10.366;2022-11-15T04:57:00;9.63;;;6.63;;
44476;SDS011;30180;44.788;10.366;2022-11-15T04:59:28;9.30;;;6.60;;
44476;SDS011;30180;44.788;10.366;2022-11-15T05:01:56;10.23;;;6.93;;
44476;SDS011;30180;44.788;10.366;2022-11-15T05:04:25;9.85;;;6.93;;
44476;SDS011;30180;44.788;10.366;2022-11-15T05:06:52;10.30;;;7.05;;
44476;SDS011;30180;44.788;10.366;2022-11-15T05:09:20;9.10;;;6.28;;
44476;SDS011;30180;44.788;10.366;2022-11-15T05:11:50;10.95;;;7.03;;
44476;SDS011;30180;44.788;10.366;2022-11-15T05:14:18;9.55;;;6.30;;
44476;SDS011;30180;44.788;10.366;2022-11-15T05:16:47;10.30;;;6.60;;
44476;SDS011;30180;44.788;10.366;2022-11-15T05:19:15;9.07;;;6.40;;
44476;SDS011;30180;44.788;10.366;2022-11-15T05:21:43;9.50;;;6.25;;
44476;SDS011;30180;44.788;10.366;2022-11-15T05:24:11;8.07;;;5.70;;
44476;SDS011;30180;44.788;10.366;2022-11-15T05:26:39;8.50;;;6.50;;
44476;SDS011;30180;44.788;10.366;2022-11-15T05:29:09;9.00;;;6.53;;
44476;SDS011;30180;44.788;10.366;2022-11-15T05:31:39;9.45;;;6.35;;
44476;SDS011;30180;44.788;10.366;2022-11-15T05:34:08;8.53;;;6.30;;
44476;SDS011;30180;44.788;10.366;2022-11-15T05:36:38;9.65;;;6.65;;
44476;SDS011;30180;44.788;10.366;2022-11-15T05:39:08;8.55;;;6.10;;
44476;SDS011;30180;44.788;10.366;2022-11-15T05:41:37;9.23;;;6.20;;
44476;SDS011;30180;44.788;10.366;2022-11-15T05:44:12;8.25;;;5.95;;
44476;SDS011;30180;44.788;10.366;2022-11-15T05:46:42;8.82;;;6.25;;
44476;SDS011;30180;44.788;10.366;2022-11-15T05:49:12;10.05;;;6.25;;
44476;SDS011;30180;44.788;10.366;2022-11-15T05:51:42;8.55;;;6.03;;
44476;SDS011;30180;44.788;10.366;2022-11-15T05:54:12;9.75;;;6.20;;
44476;SDS011;30180;44.788;10.366;2022-11-15T05:56:41;8.20;;;5.68;;
44476;SDS011;30180;44.788;10.366;2022-11-15T05:59:11;9.35;;;6.38;;
44476;SDS011;30180;44.788;10.366;2022-11-15T06:01:40;9.85;;;6.47;;
44476;SDS011;30180;44.788;10.366;2022-11-15T06:04:08;9.50;;;6.57;;
44476;SDS011;30180;44.788;10.366;2022-11-15T06:06:37;9.07;;;6.47;;
44476;SDS011;30180;44.788;10.366;2022-11-15T06:09:05;7.95;;;6.20;;
44476;SDS011;30180;44.788;10.366;2022-11-15T06:11:33;9.02;;;6.10;;
44476;SDS011;30180;44.788;10.366;2022-11-15T07:51:26;12.93;;;5.82;;
44476;SDS011;30180;44.788;10.366;2022-11-15T07:53:54;13.70;;;6.55;;
44476;SDS011;30180;44.788;10.366;2022-11-15T07:56:22;14.50;;;5.65;;
44476;SDS011;30180;44.788;10.366;2022-11-15T07:58:51;14.65;;;5.63;;
44476;SDS011;30180;44.788;10.366;2022-11-15T08:01:19;11.98;;;5.72;;
44476;SDS011;30180;44.788;10.366;2022-11-15T08:03:47;14.93;;;6.50;;
44476;SDS011;30180;44.788;10.366;2022-11-15T08:06:16;12.60;;;5.50;;
44476;SDS011;30180;44.788;10.366;2022-11-15T08:08:45;12.00;;;5.63;;
44476;SDS011;30180;44.788;10.366;2022-11-15T08:11:14;11.40;;;5.80;;
44476;SDS011;30180;44.788;10.366;2022-11-15T08:13:42;11.60;;;6.32;;
44476;SDS011;30180;44.788;10.366;2022-11-15T08:16:10;8.05;;;5.32;;
44476;SDS011;30180;44.788;10.366;2022-11-15T08:18:38;12.40;;;5.65;;
44476;SDS011;30180;44.788;10.366;2022-11-15T08:21:08;10.98;;;5.47;;
44476;SDS011;30180;44.788;10.366;2022-11-15T08:23:43;12.15;;;5.60;;
44476;SDS011;30180;44.788;10.366;2022-11-15T08:26:13;12.38;;;5.82;;
44476;SDS011;30180;44.788;10.366;2022-11-15T08:28:42;8.63;;;5.82;;
44476;SDS011;30180;44.788;10.366;2022-11-15T08:31:12;8.30;;;5.10;;
44476;SDS011;30180;44.788;10.366;2022-11-15T08:33:43;9.68;;;5.68;;
44476;SDS011;30180;44.788;10.366;2022-11-15T08:36:12;7.88;;;5.18;;
44476;SDS011;30180;44.788;10.366;2022-11-15T08:38:42;12.23;;;5.57;;
44476;SDS011;30180;44.788;10.366;2022-11-15T08:41:14;10.10;;;5.60;;
44476;SDS011;30180;44.788;10.366;2022-11-15T08:43:47;8.85;;;5.70;;
44476;SDS011;30180;44.788;10.366;2022-11-15T08:46:15;6.68;;;4.72;;
44476;SDS011;30180;44.788;10.366;2022-11-15T08:48:44;9.45;;;5.72;;
44476;SDS011;30180;44.788;10.366;2022-11-15T08:51:12;8.90;;;5.45;;
44476;SDS011;30180;44.788;10.366;2022-11-15T08:53:41;9.32;;;5.20;;
44476;SDS011;30180;44.788;10.366;2022-11-15T08:56:11;10.07;;;5.53;;
44476;SDS011;30180;44.788;10.366;2022-11-15T08:58:41;12.10;;;5.80;;
44476;SDS011;30180;44.788;10.366;2022-11-15T09:01:14;10.18;;;5.22;;
44476;SDS011;30180;44.788;10.366;2022-11-15T09:03:44;7.68;;;5.18;;
44476;SDS011;30180;44.788;10.366;2022-11-15T09:06:12;10.65;;;5.30;;
44476;SDS011;30180;44.788;10.366;2022-11-15T09:08:41;7.78;;;5.22;;
44476;SDS011;30180;44.788;10.366;2022-11-15T09:11:15;9.52;;;5.65;;
44476;SDS011;30180;44.788;10.366;2022-11-15T09:13:46;9.18;;;5.13;;
44476;SDS011;30180;44.788;10.366;2022-11-15T09:16:14;10.85;;;5.53;;
44476;SDS011;30180;44.788;10.366;2022-11-15T09:18:42;13.73;;;6.20;;
44476;SDS011;30180;44.788;10.366;2022-11-15T09:21:11;11.50;;;5.40;;
44476;SDS011;30180;44.788;10.366;2022-11-15T09:23:40;8.80;;;5.50;;
44476;SDS011;30180;44.788;10.366;2022-11-15T09:26:08;7.40;;;5.63;;
44476;SDS011;30180;44.788;10.366;2022-11-15T09:28:38;11.07;;;6.22;;
44476;SDS011;30180;44.788;10.366;2022-11-15T09:31:08;10.00;;;6.25;;
44476;SDS011;30180;44.788;10.366;2022-11-15T09:33:36;7.90;;;4.97;;
44476;SDS011;30180;44.788;10.366;2022-11-15T09:36:05;8.30;;;5.47;;
44476;SDS011;30180;44.788;10.366;2022-11-15T09:38:35;8.20;;;5.13;;
44476;SDS011;30180;44.788;10.366;2022-11-15T09:41:17;11.07;;;5.45;;
44476;SDS011;30180;44.788;10.366;2022-11-15T09:44:01;8.60;;;5.30;;
44476;SDS011;30180;44.788;10.366;2022-11-15T09:46:46;10.52;;;5.45;;
44476;SDS011;30180;44.788;10.366;2022-11-15T09:49:21;8.00;;;4.95;;
44476;SDS011;30180;44.788;10.366;2022-11-15T09:51:50;11.35;;;5.70;;
44476;SDS011;30180;44.788;10.366;2022-11-15T09:54:23;9.52;;;5.25;;
44476;SDS011;30180;44.788;10.366;2022-11-15T09:57:17;8.02;;;5.15;;
44476;SDS011;30180;44.788;10.366;2022-11-15T09:59:53;10.25;;;5.30;;
44476;SDS011;30180;44.788;10.366;2022-11-15T10:02:52;9.90;;;5.53;;
44476;SDS011;30180;44.788;10.366;2022-11-15T10:05:37;9.15;;;5.40;;
44476;SDS011;30180;44.788;10.366;2022-11-15T10:10:41;12.27;;;5.15;;
44476;SDS011;30180;44.788;10.366;2022-11-15T10:13:13;14.50;;;5.10;;
44476;SDS011;30180;44.788;10.366;2022-11-15T10:15:45;8.00;;;5.05;;
44476;SDS011;30180;44.788;10.366;2022-11-15T10:20:46;7.35;;;5.00;;
44476;SDS011;30180;44.788;10.366;2022-11-15T10:23:17;8.90;;;4.85;;
44476;SDS011;30180;44.788;10.366;2022-11-15T10:25:48;6.72;;;4.95;;
44476;SDS011;30180;44.788;10.366;2022-11-15T10:28:21;7.50;;;5.18;;
44476;SDS011;30180;44.788;10.366;2022-11-15T10:30:55;9.73;;;5.85;;
44476;SDS011;30180;44.788;10.366;2022-11-15T10:33:29;9.23;;;5.05;;
44476;SDS011;30180;44.788;10.366;2022-11-15T10:38:58;7.45;;;5.00;;
44476;SDS011;30180;44.788;10.366;2022-11-15T10:41:30;8.63;;;5.10;;
44476;SDS011;30180;44.788;10.366;2022-11-15T10:47:16;10.75;;;5.45;;
44476;SDS011;30180;44.788;10.366;2022-11-15T10:49:53;9.52;;;4.90;;
44476;SDS011;30180;44.788;10.366;2022-11-15T10:52:23;8.25;;;5.28;;
44476;SDS011;30180;44.788;10.366;2022-11-15T10:54:52;10.88;;;5.28;;
44476;SDS011;30180;44.788;10.366;2022-11-15T10:57:24;14.80;;;5.60;;
44476;SDS011;30180;44.788;10.366;2022-11-15T10:59:55;10.18;;;4.70;;
44476;SDS011;30180;44.788;10.366;2022-11-15T11:02:31;15.07;;;5.32;;
44476;SDS011;30180;44.788;10.366;2022-11-15T11:05:02;7.88;;;4.93;;
44476;SDS011;30180;44.788;10.366;2022-11-15T11:07:33;7.78;;;4.85;;
44476;SDS011;30180;44.788;10.366;2022-11-15T11:10:04;8.57;;;4.72;;
44476;SDS011;30180;44.788;10.366;2022-11-15T11:13:14;10.40;;;5.10;;
44476;SDS011;30180;44.788;10.366;2022-11-15T11:15:51;7.97;;;5.07;;
44476;SDS011;30180;44.788;10.366;2022-11-15T11:18:26;9.50;;;5.22;;
44476;SDS011;30180;44.788;10.366;2022-11-15T11:21:02;7.80;;;4.63;;
44476;SDS011;30180;44.788;10.366;2022-11-15T11:23:38;8.88;;;5.40;;
44476;SDS011;30180;44.788;10.366;2022-11-15T11:26:21;7.93;;;4.88;;
44476;SDS011;30180;44.788;10.366;2022-11-15T11:29:07;8.00;;;4.90;;
44476;SDS011;30180;44.788;10.366;2022-11-15T11:31:49;10.05;;;4.88;;
44476;SDS011;30180;44.788;10.366;2022-11-15T11:34:29;9.75;;;5.43;;
44476;SDS011;30180;44.788;10.366;2022-11-15T11:37:10;7.90;;;5.13;;
44476;SDS011;30180;44.788;10.366;2022-11-15T11:39:48;8.95;;;5.38;;
44476;SDS011;30180;44.788;10.366;2022-11-15T11:42:26;8.10;;;5.35;;
44476;SDS011;30180;44.788;10.366;2022-11-15T11:45:10;7.70;;;5.03;;
44476;SDS011;30180;44.788;10.366;2022-11-15T11:47:46;8.52;;;5.00;;
44476;SDS011;30180;44.788;10.366;2022-11-15T11:50:20;15.82;;;5.40;;
44476;SDS011;30180;44.788;10.366;2022-11-15T11:52:54;9.80;;;5.35;;
44476;SDS011;30180;44.788;10.366;2022-11-15T11:55:31;8.68;;;5.07;;
44476;SDS011;30180;44.788;10.366;2022-11-15T11:58:04;8.02;;;4.63;;
44476;SDS011;30180;44.788;10.366;2022-11-15T12:00:40;10.35;;;5.28;;
44476;SDS011;30180;44.788;10.366;2022-11-15T12:03:14;9.25;;;5.22;;
44476;SDS011;30180;44.788;10.366;2022-11-15T12:05:51;9.60;;;5.40;;
44476;SDS011;30180;44.788;10.366;2022-11-15T12:08:26;8.90;;;5.25;;
44476;SDS011;30180;44.788;10.366;2022-11-15T12:11:03;7.50;;;5.30;;
44476;SDS011;30180;44.788;10.366;2022-11-15T12:13:39;8.93;;;5.32;;
44476;SDS011;30180;44.788;10.366;2022-11-15T12:16:11;7.55;;;5.22;;
44476;SDS011;30180;44.788;10.366;2022-11-15T12:18:44;7.53;;;4.60;;
44476;SDS011;30180;44.788;10.366;2022-11-15T12:21:19;7.95;;;5.15;;
44476;SDS011;30180;44.788;10.366;2022-11-15T12:23:55;7.85;;;5.07;;
44476;SDS011;30180;44.788;10.366;2022-11-15T12:26:28;8.88;;;5.30;;
44476;SDS011;30180;44.788;10.366;2022-11-15T12:29:02;8.40;;;5.47;;
44476;SDS011;30180;44.788;10.366;2022-11-15T12:31:38;8.30;;;5.13;;
44476;SDS011;30180;44.788;10.366;2022-11-15T12:34:13;9.25;;;5.60;;
44476;SDS011;30180;44.788;10.366;2022-11-15T12:36:58;11.88;;;5.45;;
44476;SDS011;30180;44.788;10.366;2022-11-15T12:42:38;10.10;;;5.47;;
44476;SDS011;30180;44.788;10.366;2022-11-15T12:45:23;7.32;;;4.82;;
44476;SDS011;30180;44.788;10.366;2022-11-15T12:47:53;8.50;;;5.93;;
44476;SDS011;30180;44.788;10.366;2022-11-15T12:53:29;7.90;;;4.60;;
44476;SDS011;30180;44.788;10.366;2022-11-15T12:56:08;8.05;;;5.57;;
44476;SDS011;30180;44.788;10.366;2022-11-15T12:58:49;8.38;;;5.20;;
44476;SDS011;30180;44.788;10.366;2022-11-15T13:04:25;8.73;;;5.22;;
44476;SDS011;30180;44.788;10.366;2022-11-15T13:06:55;9.68;;;4.97;;
44476;SDS011;30180;44.788;10.366;2022-11-15T13:15:33;8.67;;;5.20;;
44476;SDS011;30180;44.788;10.366;2022-11-15T13:21:03;8.48;;;4.93;;
44476;SDS011;30180;44.788;10.366;2022-11-15T13:23:58;6.63;;;4.55;;
44476;SDS011;30180;44.788;10.366;2022-11-15T13:26:28;6.80;;;4.78;;
44476;SDS011;30180;44.788;10.366;2022-11-15T13:28:56;7.38;;;4.68;;
44476;SDS011;30180;44.788;10.366;2022-11-15T13:31:34;8.98;;;5.03;;
44476;SDS011;30180;44.788;10.366;2022-11-15T13:34:14;12.07;;;5.10;;
44476;SDS011;30180;44.788;10.366;2022-11-15T13:37:12;12.75;;;5.18;;
44476;SDS011;30180;44.788;10.366;2022-11-15T13:39:55;13.82;;;5.65;;
44476;SDS011;30180;44.788;10.366;2022-11-15T13:42:39;13.18;;;5.50;;
44476;SDS011;30180;44.788;10.366;2022-11-15T13:45:12;7.93;;;5.25;;
44476;SDS011;30180;44.788;10.366;2022-11-15T13:47:42;12.30;;;5.30;;
44476;SDS011;30180;44.788;10.366;2022-11-15T13:50:11;12.65;;;5.20;;
44476;SDS011;30180;44.788;10.366;2022-11-15T13:52:40;14.10;;;5.35;;
44476;SDS011;30180;44.788;10.366;2022-11-15T13:55:12;7.03;;;4.80;;
44476;SDS011;30180;44.788;10.366;2022-11-15T13:57:44;10.35;;;4.95;;
44476;SDS011;30180;44.788;10.366;2022-11-15T14:03:10;9.13;;;5.07;;
44476;SDS011;30180;44.788;10.366;2022-11-15T14:05:43;8.55;;;5.50;;
44476;SDS011;30180;44.788;10.366;2022-11-15T14:08:21;10.30;;;5.05;;
44476;SDS011;30180;44.788;10.366;2022-11-15T14:11:05;8.68;;;4.78;;
44476;SDS011;30180;44.788;10.366;2022-11-15T14:13:40;12.02;;;5.20;;
44476;SDS011;30180;44.788;10.366;2022-11-15T14:16:13;9.80;;;5.70;;
44476;SDS011;30180;44.788;10.366;2022-11-15T14:18:43;8.32;;;5.13;;
44476;SDS011;30180;44.788;10.366;2022-11-15T14:21:13;11.38;;;5.43;;
44476;SDS011;30180;44.788;10.366;2022-11-15T14:23:42;8.23;;;5.10;;
44476;SDS011;30180;44.788;10.366;2022-11-15T14:26:24;7.45;;;5.10;;
44476;SDS011;30180;44.788;10.366;2022-11-15T14:28:56;8.45;;;5.43;;
44476;SDS011;30180;44.788;10.366;2022-11-15T14:31:24;13.57;;;5.07;;
44476;SDS011;30180;44.788;10.366;2022-11-15T14:33:53;8.07;;;5.15;;
44476;SDS011;30180;44.788;10.366;2022-11-15T14:36:21;6.97;;;4.40;;
44476;SDS011;30180;44.788;10.366;2022-11-15T14:38:49;9.80;;;5.10;;
44476;SDS011;30180;44.788;10.366;2022-11-15T14:41:18;9.20;;;5.30;;
44476;SDS011;30180;44.788;10.366;2022-11-15T14:43:48;10.30;;;5.25;;
44476;SDS011;30180;44.788;10.366;2022-11-15T14:46:19;12.18;;;5.55;;
44476;SDS011;30180;44.788;10.366;2022-11-15T14:48:47;8.48;;;5.20;;
44476;SDS011;30180;44.788;10.366;2022-11-15T14:51:16;9.43;;;4.97;;
44476;SDS011;30180;44.788;10.366;2022-11-15T14:53:45;8.20;;;5.30;;
44476;SDS011;30180;44.788;10.366;2022-11-15T14:56:14;9.43;;;5.15;;
44476;SDS011;30180;44.788;10.366;2022-11-15T14:58:43;12.07;;;4.80;;
44476;SDS011;30180;44.788;10.366;2022-11-15T15:01:12;8.70;;;5.00;;
44476;SDS011;30180;44.788;10.366;2022-11-15T15:03:43;12.90;;;4.70;;
44476;SDS011;30180;44.788;10.366;2022-11-15T15:06:11;12.80;;;5.20;;
44476;SDS011;30180;44.788;10.366;2022-11-15T15:08:43;11.48;;;5.82;;
44476;SDS011;30180;44.788;10.366;2022-11-15T15:11:13;13.52;;;5.75;;
44476;SDS011;30180;44.788;10.366;2022-11-15T15:13:43;12.25;;;5.70;;
44476;SDS011;30180;44.788;10.366;2022-11-15T15:16:14;13.77;;;5.75;;
44476;SDS011;30180;44.788;10.366;2022-11-15T15:18:43;15.32;;;6.50;;
44476;SDS011;30180;44.788;10.366;2022-11-15T15:21:16;12.05;;;6.45;;
44476;SDS011;30180;44.788;10.366;2022-11-15T15:23:48;12.80;;;6.30;;
44476;SDS011;30180;44.788;10.366;2022-11-15T15:26:16;12.27;;;6.43;;
44476;SDS011;30180;44.788;10.366;2022-11-15T15:28:45;12.75;;;6.50;;
44476;SDS011;30180;44.788;10.366;2022-11-15T15:31:14;12.85;;;6.03;;
44476;SDS011;30180;44.788;10.366;2022-11-15T15:33:44;12.05;;;6.43;;
44476;SDS011;30180;44.788;10.366;2022-11-15T15:36:13;13.85;;;6.32;;
44476;SDS011;30180;44.788;10.366;2022-11-15T15:38:44;14.52;;;6.75;;
44476;SDS011;30180;44.788;10.366;2022-11-15T15:41:13;15.10;;;7.07;;
44476;SDS011;30180;44.788;10.366;2022-11-15T15:43:42;16.45;;;6.28;;
44476;SDS011;30180;44.788;10.366;2022-11-15T15:46:11;13.48;;;6.38;;
44476;SDS011;30180;44.788;10.366;2022-11-15T15:48:42;13.15;;;6.35;;
44476;SDS011;30180;44.788;10.366;2022-11-15T15:51:11;12.07;;;6.18;;
44476;SDS011;30180;44.788;10.366;2022-11-15T15:53:45;11.63;;;6.57;;
44476;SDS011;30180;44.788;10.366;2022-11-15T15:56:14;10.88;;;5.63;;
44476;SDS011;30180;44.788;10.366;2022-11-15T15:58:42;15.43;;;6.15;;
44476;SDS011;30180;44.788;10.366;2022-11-15T16:01:10;13.27;;;6.35;;
44476;SDS011;30180;44.788;10.366;2022-11-15T16:03:38;13.02;;;6.20;;
44476;SDS011;30180;44.788;10.366;2022-11-15T16:09:01;16.45;;;6.47;;
44476;SDS011;30180;44.788;10.366;2022-11-15T16:11:46;12.77;;;5.90;;
44476;SDS011;30180;44.788;10.366;2022-11-15T16:14:14;13.07;;;6.28;;
44476;SDS011;30180;44.788;10.366;2022-11-15T16:16:42;17.25;;;6.28;;
44476;SDS011;30180;44.788;10.366;2022-11-15T16:19:11;14.13;;;6.25;;
44476;SDS011;30180;44.788;10.366;2022-11-15T16:21:40;16.08;;;6.63;;
44476;SDS011;30180;44.788;10.366;2022-11-15T16:24:09;10.88;;;6.18;;
44476;SDS011;30180;44.788;10.366;2022-11-15T16:26:37;11.32;;;6.07;;
44476;SDS011;30180;44.788;10.366;2022-11-15T16:29:07;12.25;;;5.82;;
44476;SDS011;30180;44.788;10.366;2022-11-15T16:31:36;14.27;;;6.22;;
44476;SDS011;30180;44.788;10.366;2022-11-15T16:34:04;13.43;;;6.25;;
44476;SDS011;30180;44.788;10.366;2022-11-15T16:36:37;9.90;;;5.97;;
44476;SDS011;30180;44.788;10.366;2022-11-15T16:39:08;13.27;;;6.20;;
44476;SDS011;30180;44.788;10.366;2022-11-15T16:41:39;11.50;;;5.60;;
44476;SDS011;30180;44.788;10.366;2022-11-15T16:44:09;11.43;;;5.73;;
44476;SDS011;30180;44.788;10.366;2022-11-15T16:46:37;10.93;;;6.35;;
44476;SDS011;30180;44.788;10.366;2022-11-15T16:49:10;10.57;;;5.53;;
44476;SDS011;30180;44.788;10.366;2022-11-15T16:51:40;11.70;;;5.63;;
44476;SDS011;30180;44.788;10.366;2022-11-15T16:54:11;11.02;;;6.10;;
44476;SDS011;30180;44.788;10.366;2022-11-15T16:56:40;10.02;;;6.03;;
44476;SDS011;30180;44.788;10.366;2022-11-15T16:59:10;12.90;;;6.10;;
44476;SDS011;30180;44.788;10.366;2022-11-15T17:01:43;12.18;;;6.07;;
44476;SDS011;30180;44.788;10.366;2022-11-15T17:04:17;10.13;;;5.85;;
44476;SDS011;30180;44.788;10.366;2022-11-15T17:06:46;10.73;;;5.70;;
44476;SDS011;30180;44.788;10.366;2022-11-15T17:09:17;10.00;;;5.90;;
44476;SDS011;30180;44.788;10.366;2022-11-15T17:11:50;9.48;;;5.68;;
44476;SDS011;30180;44.788;10.366;2022-11-15T17:14:19;13.50;;;5.65;;
44476;SDS011;30180;44.788;10.366;2022-11-15T17:16:48;9.85;;;5.93;;